sensor_id;sensor_type;location;lat;lon;timestamp;temperature;humidity
14236;DHT22;7202;50.718;7.072;2023-05-27T00:02:08;11.50;99.90
14236;DHT22;7202;50.718;7.072;2023-05-27T00:04:37;11.40;99.90
14236;DHT22;7202;50.718;7.072;2023-05-27T00:07:10;11.40;99.90
14236;DHT22;7202;50.718;7.072;2023-05-27T00:09:39;11.30;99.90
14236;DHT22;7202;50.718;7.072;2023-05-27T00:12:08;11.20;99.90
14236;DHT22;7202;50.718;7.072;2023-05-27T00:14:42;11.20;99.90
14236;DHT22;7202;50.718;7.072;2023-05-27T00:17:11;11.20;99.90
14236;DHT22;7202;50.718;7.072;2023-05-27T00:19:42;11.10;99.90
14236;DHT22;7202;50.718;7.072;2023-05-27T00:22:14;11.10;99.90
14236;DHT22;7202;50.718;7.072;2023-05-27T00:24:46;11.00;99.90
14236;DHT22;7202;50.718;7.072;2023-05-27T00:27:15;11.30;99.90
14236;DHT22;7202;50.718;7.072;2023-05-27T00:29:44;10.90;99.90
14236;DHT22;7202;50.718;7.072;2023-05-27T00:32:15;10.80;99.90
14236;DHT22;7202;50.718;7.072;2023-05-27T00:34:44;10.80;99.90
14236;DHT22;7202;50.718;7.072;2023-05-27T00:37:15;10.70;99.90
14236;DHT22;7202;50.718;7.072;2023-05-27T00:39:44;10.70;99.90
14236;DHT22;7202;50.718;7.072;2023-05-27T00:42:13;10.70;99.90
14236;DHT22;7202;50.718;7.072;2023-05-27T00:44:42;10.60;99.90
14236;DHT22;7202;50.718;7.072;2023-05-27T00:47:11;10.50;99.90
14236;DHT22;7202;50.718;7.072;2023-05-27T00:49:39;10.50;99.90
14236;DHT22;7202;50.718;7.072;2023-05-27T00:52:09;10.50;99.90
14236;DHT22;7202;50.718;7.072;2023-05-27T00:54:40;10.40;99.90
14236;DHT22;7202;50.718;7.072;2023-05-27T00:57:08;10.40;99.90
14236;DHT22;7202;50.718;7.072;2023-05-27T00:59:38;10.40;99.90
14236;DHT22;7202;50.718;7.072;2023-05-27T01:02:06;10.30;99.90
14236;DHT22;7202;50.718;7.072;2023-05-27T01:04:35;10.30;99.90
14236;DHT22;7202;50.718;7.072;2023-05-27T01:07:10;10.20;99.90
14236;DHT22;7202;50.718;7.072;2023-05-27T01:09:49;10.20;99.90
14236;DHT22;7202;50.718;7.072;2023-05-27T01:12:27;10.20;99.90
14236;DHT22;7202;50.718;7.072;2023-05-27T01:14:57;10.10;99.90
14236;DHT22;7202;50.718;7.072;2023-05-27T01:17:27;10.10;99.90
14236;DHT22;7202;50.718;7.072;2023-05-27T01:19:57;10.00;99.90
14236;DHT22;7202;50.718;7.072;2023-05-27T01:22:30;10.00;99.90
14236;DHT22;7202;50.718;7.072;2023-05-27T01:24:59;10.00;99.90
14236;DHT22;7202;50.718;7.072;2023-05-27T01:27:28;9.90;99.90
14236;DHT22;7202;50.718;7.072;2023-05-27T01:29:57;9.90;99.90
14236;DHT22;7202;50.718;7.072;2023-05-27T01:32:30;9.90;99.90
14236;DHT22;7202;50.718;7.072;2023-05-27T01:35:05;9.90;99.90
14236;DHT22;7202;50.718;7.072;2023-05-27T01:37:41;9.80;99.90
14236;DHT22;7202;50.718;7.072;2023-05-27T01:40:13;9.80;99.90
14236;DHT22;7202;50.718;7.072;2023-05-27T01:42:43;9.80;99.90
14236;DHT22;7202;50.718;7.072;2023-05-27T01:45:12;9.80;99.90
14236;DHT22;7202;50.718;7.072;2023-05-27T01:47:43;9.70;99.90
14236;DHT22;7202;50.718;7.072;2023-05-27T01:50:11;9.70;99.90
14236;DHT22;7202;50.718;7.072;2023-05-27T01:52:45;9.70;99.90
14236;DHT22;7202;50.718;7.072;2023-05-27T01:55:14;9.70;99.90
14236;DHT22;7202;50.718;7.072;2023-05-27T01:57:45;9.70;99.90
14236;DHT22;7202;50.718;7.072;2023-05-27T02:00:14;9.60;99.90
14236;DHT22;7202;50.718;7.072;2023-05-27T02:02:43;9.60;99.90
14236;DHT22;7202;50.718;7.072;2023-05-27T02:05:14;9.50;99.90
14236;DHT22;7202;50.718;7.072;2023-05-27T02:07:45;9.50;99.90
14236;DHT22;7202;50.718;7.072;2023-05-27T02:10:14;9.50;99.90
14236;DHT22;7202;50.718;7.072;2023-05-27T02:12:42;9.50;99.90
14236;DHT22;7202;50.718;7.072;2023-05-27T02:15:12;9.40;99.90
14236;DHT22;7202;50.718;7.072;2023-05-27T02:17:42;9.40;99.90
14236;DHT22;7202;50.718;7.072;2023-05-27T02:20:15;9.40;99.90
14236;DHT22;7202;50.718;7.072;2023-05-27T02:22:45;9.40;99.90
14236;DHT22;7202;50.718;7.072;2023-05-27T02:25:14;9.30;99.90
14236;DHT22;7202;50.718;7.072;2023-05-27T02:27:42;9.30;99.90
14236;DHT22;7202;50.718;7.072;2023-05-27T02:30:15;9.30;99.90
14236;DHT22;7202;50.718;7.072;2023-05-27T02:32:44;9.30;99.90
14236;DHT22;7202;50.718;7.072;2023-05-27T02:35:14;9.20;99.90
14236;DHT22;7202;50.718;7.072;2023-05-27T02:37:44;9.20;99.90
14236;DHT22;7202;50.718;7.072;2023-05-27T02:40:23;9.20;99.90
14236;DHT22;7202;50.718;7.072;2023-05-27T02:42:55;9.10;99.90
14236;DHT22;7202;50.718;7.072;2023-05-27T02:45:23;9.10;99.90
14236;DHT22;7202;50.718;7.072;2023-05-27T02:47:52;9.10;99.90
14236;DHT22;7202;50.718;7.072;2023-05-27T02:50:22;9.10;99.90
14236;DHT22;7202;50.718;7.072;2023-05-27T02:52:52;9.00;99.90
14236;DHT22;7202;50.718;7.072;2023-05-27T02:55:22;9.00;99.90
14236;DHT22;7202;50.718;7.072;2023-05-27T02:57:51;9.00;99.90
14236;DHT22;7202;50.718;7.072;2023-05-27T03:00:19;8.90;99.90
14236;DHT22;7202;50.718;7.072;2023-05-27T03:02:49;8.90;99.90
14236;DHT22;7202;50.718;7.072;2023-05-27T03:05:17;8.80;99.90
14236;DHT22;7202;50.718;7.072;2023-05-27T03:07:49;8.80;99.90
14236;DHT22;7202;50.718;7.072;2023-05-27T03:10:19;8.80;99.90
14236;DHT22;7202;50.718;7.072;2023-05-27T03:12:48;8.80;99.90
14236;DHT22;7202;50.718;7.072;2023-05-27T03:15:17;8.80;99.90
14236;DHT22;7202;50.718;7.072;2023-05-27T03:17:49;8.70;99.90
14236;DHT22;7202;50.718;7.072;2023-05-27T03:20:20;8.70;99.90
14236;DHT22;7202;50.718;7.072;2023-05-27T03:22:50;8.60;99.90
14236;DHT22;7202;50.718;7.072;2023-05-27T03:25:20;8.60;99.90
14236;DHT22;7202;50.718;7.072;2023-05-27T03:27:48;8.60;99.90
14236;DHT22;7202;50.718;7.072;2023-05-27T03:30:17;8.60;99.90
14236;DHT22;7202;50.718;7.072;2023-05-27T03:32:49;8.50;99.90
14236;DHT22;7202;50.718;7.072;2023-05-27T03:35:24;8.50;99.90
14236;DHT22;7202;50.718;7.072;2023-05-27T03:37:53;8.50;99.90
14236;DHT22;7202;50.718;7.072;2023-05-27T03:40:23;8.50;99.90
14236;DHT22;7202;50.718;7.072;2023-05-27T03:42:53;8.50;99.90
14236;DHT22;7202;50.718;7.072;2023-05-27T03:45:23;8.40;99.90
14236;DHT22;7202;50.718;7.072;2023-05-27T03:47:53;8.50;99.90
14236;DHT22;7202;50.718;7.072;2023-05-27T03:50:21;8.40;99.90
14236;DHT22;7202;50.718;7.072;2023-05-27T03:52:50;8.40;99.90
14236;DHT22;7202;50.718;7.072;2023-05-27T03:55:20;8.40;99.90
14236;DHT22;7202;50.718;7.072;2023-05-27T03:57:50;8.40;99.90
14236;DHT22;7202;50.718;7.072;2023-05-27T04:00:19;8.40;99.90
14236;DHT22;7202;50.718;7.072;2023-05-27T04:02:51;8.40;99.90
14236;DHT22;7202;50.718;7.072;2023-05-27T04:05:20;8.40;99.90
14236;DHT22;7202;50.718;7.072;2023-05-27T04:07:49;8.40;99.90
14236;DHT22;7202;50.718;7.072;2023-05-27T04:10:19;8.50;99.90
14236;DHT22;7202;50.718;7.072;2023-05-27T04:12:47;8.40;99.90
14236;DHT22;7202;50.718;7.072;2023-05-27T04:15:17;8.40;99.90
14236;DHT22;7202;50.718;7.072;2023-05-27T04:17:46;8.40;99.90
14236;DHT22;7202;50.718;7.072;2023-05-27T04:20:15;8.40;99.90
14236;DHT22;7202;50.718;7.072;2023-05-27T04:22:48;8.50;99.90
14236;DHT22;7202;50.718;7.072;2023-05-27T04:25:17;8.60;99.90
14236;DHT22;7202;50.718;7.072;2023-05-27T04:28:06;8.70;99.90
14236;DHT22;7202;50.718;7.072;2023-05-27T04:30:39;8.80;99.90
14236;DHT22;7202;50.718;7.072;2023-05-27T04:33:16;8.90;99.90
14236;DHT22;7202;50.718;7.072;2023-05-27T04:35:47;8.90;99.90
14236;DHT22;7202;50.718;7.072;2023-05-27T04:38:17;9.00;99.90
14236;DHT22;7202;50.718;7.072;2023-05-27T04:40:54;9.10;99.90
14236;DHT22;7202;50.718;7.072;2023-05-27T04:43:41;9.20;99.90
14236;DHT22;7202;50.718;7.072;2023-05-27T04:46:14;9.20;99.90
14236;DHT22;7202;50.718;7.072;2023-05-27T04:48:43;9.50;99.90
14236;DHT22;7202;50.718;7.072;2023-05-27T04:51:13;9.30;99.90
14236;DHT22;7202;50.718;7.072;2023-05-27T04:53:43;9.30;99.90
14236;DHT22;7202;50.718;7.072;2023-05-27T04:56:12;9.30;99.90
14236;DHT22;7202;50.718;7.072;2023-05-27T04:58:43;9.40;99.90
14236;DHT22;7202;50.718;7.072;2023-05-27T05:01:16;9.40;99.90
14236;DHT22;7202;50.718;7.072;2023-05-27T05:03:53;9.40;99.90
14236;DHT22;7202;50.718;7.072;2023-05-27T05:06:43;9.40;99.90
14236;DHT22;7202;50.718;7.072;2023-05-27T05:09:12;9.50;99.90
14236;DHT22;7202;50.718;7.072;2023-05-27T05:11:41;9.50;99.90
14236;DHT22;7202;50.718;7.072;2023-05-27T05:14:09;9.60;99.90
14236;DHT22;7202;50.718;7.072;2023-05-27T05:16:39;9.70;99.90
14236;DHT22;7202;50.718;7.072;2023-05-27T05:19:11;9.70;99.90
14236;DHT22;7202;50.718;7.072;2023-05-27T05:21:40;9.80;99.90
14236;DHT22;7202;50.718;7.072;2023-05-27T05:24:11;9.90;99.90
14236;DHT22;7202;50.718;7.072;2023-05-27T05:26:41;10.00;99.90
14236;DHT22;7202;50.718;7.072;2023-05-27T05:29:11;10.10;99.90
14236;DHT22;7202;50.718;7.072;2023-05-27T05:31:42;10.20;99.90
14236;DHT22;7202;50.718;7.072;2023-05-27T05:34:13;10.40;99.90
14236;DHT22;7202;50.718;7.072;2023-05-27T05:36:45;10.50;99.90
14236;DHT22;7202;50.718;7.072;2023-05-27T05:39:14;10.70;99.90
14236;DHT22;7202;50.718;7.072;2023-05-27T05:41:47;10.90;99.90
14236;DHT22;7202;50.718;7.072;2023-05-27T05:44:18;11.10;99.90
14236;DHT22;7202;50.718;7.072;2023-05-27T05:46:52;11.30;99.90
14236;DHT22;7202;50.718;7.072;2023-05-27T05:49:23;11.40;99.90
14236;DHT22;7202;50.718;7.072;2023-05-27T05:51:52;11.60;99.90
14236;DHT22;7202;50.718;7.072;2023-05-27T05:54:21;11.80;99.90
14236;DHT22;7202;50.718;7.072;2023-05-27T05:56:54;11.90;99.90
14236;DHT22;7202;50.718;7.072;2023-05-27T05:59:23;12.00;99.90
14236;DHT22;7202;50.718;7.072;2023-05-27T06:01:53;12.20;99.90
14236;DHT22;7202;50.718;7.072;2023-05-27T06:04:25;12.30;99.90
14236;DHT22;7202;50.718;7.072;2023-05-27T06:06:54;12.40;99.90
14236;DHT22;7202;50.718;7.072;2023-05-27T06:09:34;12.60;99.90
14236;DHT22;7202;50.718;7.072;2023-05-27T06:12:07;12.70;99.90
14236;DHT22;7202;50.718;7.072;2023-05-27T06:14:43;12.80;99.90
14236;DHT22;7202;50.718;7.072;2023-05-27T06:17:22;12.90;99.90
14236;DHT22;7202;50.718;7.072;2023-05-27T06:19:51;13.10;99.90
14236;DHT22;7202;50.718;7.072;2023-05-27T06:22:20;13.20;99.90
14236;DHT22;7202;50.718;7.072;2023-05-27T06:25:09;13.30;99.90
14236;DHT22;7202;50.718;7.072;2023-05-27T06:27:47;13.40;99.90
14236;DHT22;7202;50.718;7.072;2023-05-27T06:30:16;13.50;99.90
14236;DHT22;7202;50.718;7.072;2023-05-27T06:32:47;13.60;99.90
14236;DHT22;7202;50.718;7.072;2023-05-27T06:35:18;13.70;99.90
14236;DHT22;7202;50.718;7.072;2023-05-27T06:37:47;13.80;99.90
14236;DHT22;7202;50.718;7.072;2023-05-27T06:40:16;13.80;99.90
14236;DHT22;7202;50.718;7.072;2023-05-27T06:42:46;13.90;99.90
14236;DHT22;7202;50.718;7.072;2023-05-27T06:45:33;13.90;99.90
14236;DHT22;7202;50.718;7.072;2023-05-27T06:48:23;14.00;99.90
14236;DHT22;7202;50.718;7.072;2023-05-27T06:50:52;14.00;99.90
14236;DHT22;7202;50.718;7.072;2023-05-27T06:53:21;14.10;99.90
14236;DHT22;7202;50.718;7.072;2023-05-27T06:56:12;14.10;99.90
14236;DHT22;7202;50.718;7.072;2023-05-27T06:59:10;14.20;99.90
14236;DHT22;7202;50.718;7.072;2023-05-27T07:01:39;14.20;99.90
14236;DHT22;7202;50.718;7.072;2023-05-27T07:04:13;14.30;99.90
14236;DHT22;7202;50.718;7.072;2023-05-27T07:06:52;14.40;99.90
14236;DHT22;7202;50.718;7.072;2023-05-27T07:09:21;14.40;99.90
14236;DHT22;7202;50.718;7.072;2023-05-27T07:11:50;14.50;99.90
14236;DHT22;7202;50.718;7.072;2023-05-27T07:14:50;14.50;99.90
14236;DHT22;7202;50.718;7.072;2023-05-27T07:17:22;14.60;99.90
14236;DHT22;7202;50.718;7.072;2023-05-27T07:19:52;14.60;99.90
14236;DHT22;7202;50.718;7.072;2023-05-27T07:22:21;14.60;99.90
14236;DHT22;7202;50.718;7.072;2023-05-27T07:24:50;14.70;99.90
14236;DHT22;7202;50.718;7.072;2023-05-27T07:27:20;14.80;99.90
14236;DHT22;7202;50.718;7.072;2023-05-27T07:29:56;14.80;99.90
14236;DHT22;7202;50.718;7.072;2023-05-27T07:32:36;14.80;99.90
14236;DHT22;7202;50.718;7.072;2023-05-27T07:35:09;14.90;99.90
14236;DHT22;7202;50.718;7.072;2023-05-27T07:37:38;15.00;99.90
14236;DHT22;7202;50.718;7.072;2023-05-27T07:40:08;15.00;99.90
14236;DHT22;7202;50.718;7.072;2023-05-27T07:42:38;15.00;99.90
14236;DHT22;7202;50.718;7.072;2023-05-27T07:45:08;15.10;99.90
14236;DHT22;7202;50.718;7.072;2023-05-27T07:47:38;15.20;99.90
14236;DHT22;7202;50.718;7.072;2023-05-27T07:50:09;15.20;99.90
14236;DHT22;7202;50.718;7.072;2023-05-27T07:52:43;15.30;99.90
14236;DHT22;7202;50.718;7.072;2023-05-27T07:55:22;15.30;99.90
14236;DHT22;7202;50.718;7.072;2023-05-27T07:57:52;15.40;99.90
14236;DHT22;7202;50.718;7.072;2023-05-27T08:00:21;15.50;99.90
14236;DHT22;7202;50.718;7.072;2023-05-27T08:02:53;15.50;99.90
14236;DHT22;7202;50.718;7.072;2023-05-27T08:05:42;15.50;99.90
14236;DHT22;7202;50.718;7.072;2023-05-27T08:08:29;15.70;99.90
14236;DHT22;7202;50.718;7.072;2023-05-27T08:11:23;15.60;99.90
14236;DHT22;7202;50.718;7.072;2023-05-27T08:14:00;15.70;99.90
14236;DHT22;7202;50.718;7.072;2023-05-27T08:16:42;15.70;99.90
14236;DHT22;7202;50.718;7.072;2023-05-27T08:19:22;15.80;99.90
14236;DHT22;7202;50.718;7.072;2023-05-27T08:22:11;15.90;99.90
14236;DHT22;7202;50.718;7.072;2023-05-27T08:25:02;15.90;99.90
14236;DHT22;7202;50.718;7.072;2023-05-27T08:27:49;16.00;99.90
14236;DHT22;7202;50.718;7.072;2023-05-27T08:30:32;16.00;99.90
14236;DHT22;7202;50.718;7.072;2023-05-27T08:33:07;16.10;99.90
14236;DHT22;7202;50.718;7.072;2023-05-27T08:35:36;16.20;99.90
14236;DHT22;7202;50.718;7.072;2023-05-27T08:38:06;16.30;99.90
14236;DHT22;7202;50.718;7.072;2023-05-27T08:40:39;16.30;99.90
14236;DHT22;7202;50.718;7.072;2023-05-27T08:43:08;16.40;99.90
14236;DHT22;7202;50.718;7.072;2023-05-27T08:45:44;16.40;99.90
14236;DHT22;7202;50.718;7.072;2023-05-27T08:48:14;16.40;99.90
14236;DHT22;7202;50.718;7.072;2023-05-27T08:50:45;16.50;99.90
14236;DHT22;7202;50.718;7.072;2023-05-27T08:53:17;16.50;99.90
14236;DHT22;7202;50.718;7.072;2023-05-27T08:55:48;16.60;99.90
14236;DHT22;7202;50.718;7.072;2023-05-27T08:58:20;16.70;99.90
14236;DHT22;7202;50.718;7.072;2023-05-27T09:00:50;16.70;99.90
14236;DHT22;7202;50.718;7.072;2023-05-27T09:03:22;16.80;99.90
14236;DHT22;7202;50.718;7.072;2023-05-27T09:05:54;16.90;99.90
14236;DHT22;7202;50.718;7.072;2023-05-27T09:08:24;17.00;99.90
14236;DHT22;7202;50.718;7.072;2023-05-27T09:11:04;17.10;99.90
14236;DHT22;7202;50.718;7.072;2023-05-27T09:13:35;17.20;99.90
14236;DHT22;7202;50.718;7.072;2023-05-27T09:16:04;17.20;99.90
14236;DHT22;7202;50.718;7.072;2023-05-27T09:18:35;17.30;99.90
14236;DHT22;7202;50.718;7.072;2023-05-27T09:21:04;17.40;99.90
14236;DHT22;7202;50.718;7.072;2023-05-27T09:23:38;17.50;99.90
14236;DHT22;7202;50.718;7.072;2023-05-27T09:26:08;17.60;99.90
14236;DHT22;7202;50.718;7.072;2023-05-27T09:28:37;17.60;99.90
14236;DHT22;7202;50.718;7.072;2023-05-27T09:31:08;17.70;99.90
14236;DHT22;7202;50.718;7.072;2023-05-27T09:33:39;17.80;99.90
14236;DHT22;7202;50.718;7.072;2023-05-27T09:36:08;17.90;99.90
14236;DHT22;7202;50.718;7.072;2023-05-27T09:38:38;18.00;99.90
14236;DHT22;7202;50.718;7.072;2023-05-27T09:41:08;18.10;99.90
14236;DHT22;7202;50.718;7.072;2023-05-27T09:43:37;18.20;99.90
14236;DHT22;7202;50.718;7.072;2023-05-27T09:46:12;18.20;99.90
14236;DHT22;7202;50.718;7.072;2023-05-27T09:48:42;18.30;99.90
14236;DHT22;7202;50.718;7.072;2023-05-27T09:51:12;18.40;99.90
14236;DHT22;7202;50.718;7.072;2023-05-27T09:53:43;18.50;99.90
14236;DHT22;7202;50.718;7.072;2023-05-27T09:56:11;18.60;99.90
14236;DHT22;7202;50.718;7.072;2023-05-27T09:58:40;18.60;99.90
14236;DHT22;7202;50.718;7.072;2023-05-27T10:01:09;18.70;99.90
14236;DHT22;7202;50.718;7.072;2023-05-27T10:03:40;18.80;99.90
14236;DHT22;7202;50.718;7.072;2023-05-27T10:06:12;18.90;99.90
14236;DHT22;7202;50.718;7.072;2023-05-27T10:08:44;19.00;99.90
14236;DHT22;7202;50.718;7.072;2023-05-27T10:11:13;19.10;99.90
14236;DHT22;7202;50.718;7.072;2023-05-27T10:13:44;19.20;99.90
14236;DHT22;7202;50.718;7.072;2023-05-27T10:16:19;19.30;99.90
14236;DHT22;7202;50.718;7.072;2023-05-27T10:18:52;19.30;99.90
14236;DHT22;7202;50.718;7.072;2023-05-27T10:21:22;19.40;99.90
14236;DHT22;7202;50.718;7.072;2023-05-27T10:23:58;19.40;99.90
14236;DHT22;7202;50.718;7.072;2023-05-27T10:26:35;19.50;99.90
14236;DHT22;7202;50.718;7.072;2023-05-27T10:29:06;19.60;99.90
14236;DHT22;7202;50.718;7.072;2023-05-27T10:31:36;19.60;99.90
14236;DHT22;7202;50.718;7.072;2023-05-27T10:34:12;19.70;99.90
14236;DHT22;7202;50.718;7.072;2023-05-27T10:36:40;19.80;99.90
14236;DHT22;7202;50.718;7.072;2023-05-27T10:39:15;19.90;99.90
14236;DHT22;7202;50.718;7.072;2023-05-27T10:41:48;20.00;99.90
14236;DHT22;7202;50.718;7.072;2023-05-27T10:44:26;20.00;99.90
14236;DHT22;7202;50.718;7.072;2023-05-27T10:46:59;20.10;99.90
14236;DHT22;7202;50.718;7.072;2023-05-27T10:49:33;20.20;99.90
14236;DHT22;7202;50.718;7.072;2023-05-27T10:52:07;20.20;99.90
14236;DHT22;7202;50.718;7.072;2023-05-27T10:54:42;20.30;99.90
14236;DHT22;7202;50.718;7.072;2023-05-27T10:57:11;20.40;99.90
14236;DHT22;7202;50.718;7.072;2023-05-27T10:59:47;20.40;99.90
14236;DHT22;7202;50.718;7.072;2023-05-27T11:02:16;20.50;99.90
14236;DHT22;7202;50.718;7.072;2023-05-27T11:04:46;20.60;99.90
14236;DHT22;7202;50.718;7.072;2023-05-27T11:07:18;20.60;99.90
14236;DHT22;7202;50.718;7.072;2023-05-27T11:09:50;20.70;99.90
14236;DHT22;7202;50.718;7.072;2023-05-27T11:12:20;20.80;99.90
14236;DHT22;7202;50.718;7.072;2023-05-27T11:14:50;20.90;99.90
14236;DHT22;7202;50.718;7.072;2023-05-27T11:17:20;20.90;99.90
14236;DHT22;7202;50.718;7.072;2023-05-27T11:19:49;20.90;99.90
14236;DHT22;7202;50.718;7.072;2023-05-27T11:22:19;21.00;99.90
14236;DHT22;7202;50.718;7.072;2023-05-27T11:24:59;21.10;99.90
14236;DHT22;7202;50.718;7.072;2023-05-27T11:27:33;21.10;99.90
14236;DHT22;7202;50.718;7.072;2023-05-27T11:30:07;21.20;99.90
14236;DHT22;7202;50.718;7.072;2023-05-27T11:32:40;21.30;99.90
14236;DHT22;7202;50.718;7.072;2023-05-27T11:35:14;21.40;99.90
14236;DHT22;7202;50.718;7.072;2023-05-27T11:37:46;21.40;99.90
14236;DHT22;7202;50.718;7.072;2023-05-27T11:40:16;21.40;99.90
14236;DHT22;7202;50.718;7.072;2023-05-27T11:42:45;21.50;99.90
14236;DHT22;7202;50.718;7.072;2023-05-27T11:45:15;21.60;99.90
14236;DHT22;7202;50.718;7.072;2023-05-27T11:47:44;21.60;99.90
14236;DHT22;7202;50.718;7.072;2023-05-27T11:50:16;21.70;99.90
14236;DHT22;7202;50.718;7.072;2023-05-27T11:52:52;21.70;99.90
14236;DHT22;7202;50.718;7.072;2023-05-27T11:55:23;21.80;99.90
14236;DHT22;7202;50.718;7.072;2023-05-27T11:57:52;21.90;99.90
14236;DHT22;7202;50.718;7.072;2023-05-27T12:00:21;22.00;99.90
14236;DHT22;7202;50.718;7.072;2023-05-27T12:02:51;22.00;99.90
14236;DHT22;7202;50.718;7.072;2023-05-27T12:05:20;22.10;99.90
14236;DHT22;7202;50.718;7.072;2023-05-27T12:08:01;22.10;99.90
14236;DHT22;7202;50.718;7.072;2023-05-27T12:10:32;22.20;99.90
14236;DHT22;7202;50.718;7.072;2023-05-27T12:13:04;22.10;99.90
14236;DHT22;7202;50.718;7.072;2023-05-27T12:15:32;22.20;99.90
14236;DHT22;7202;50.718;7.072;2023-05-27T12:18:01;22.20;99.90
14236;DHT22;7202;50.718;7.072;2023-05-27T12:20:30;22.30;99.90
14236;DHT22;7202;50.718;7.072;2023-05-27T12:22:59;22.30;99.90
14236;DHT22;7202;50.718;7.072;2023-05-27T12:25:28;22.30;99.90
14236;DHT22;7202;50.718;7.072;2023-05-27T12:27:58;22.30;99.90
14236;DHT22;7202;50.718;7.072;2023-05-27T12:30:26;22.30;99.90
14236;DHT22;7202;50.718;7.072;2023-05-27T12:32:55;22.30;99.90
14236;DHT22;7202;50.718;7.072;2023-05-27T12:35:24;22.40;99.90
14236;DHT22;7202;50.718;7.072;2023-05-27T12:37:52;22.40;99.90
14236;DHT22;7202;50.718;7.072;2023-05-27T12:40:21;22.50;99.90
14236;DHT22;7202;50.718;7.072;2023-05-27T12:42:52;22.60;99.90
14236;DHT22;7202;50.718;7.072;2023-05-27T12:45:24;22.60;99.90
14236;DHT22;7202;50.718;7.072;2023-05-27T12:47:53;22.60;99.90
14236;DHT22;7202;50.718;7.072;2023-05-27T12:50:22;22.60;99.90
14236;DHT22;7202;50.718;7.072;2023-05-27T12:52:51;22.70;99.90
14236;DHT22;7202;50.718;7.072;2023-05-27T12:55:21;22.70;99.90
14236;DHT22;7202;50.718;7.072;2023-05-27T12:57:51;22.80;99.90
14236;DHT22;7202;50.718;7.072;2023-05-27T13:00:20;22.80;99.90
14236;DHT22;7202;50.718;7.072;2023-05-27T13:02:50;22.90;99.90
14236;DHT22;7202;50.718;7.072;2023-05-27T13:05:19;22.90;99.90
14236;DHT22;7202;50.718;7.072;2023-05-27T13:07:58;22.90;99.40
14236;DHT22;7202;50.718;7.072;2023-05-27T13:10:27;22.90;99.60
14236;DHT22;7202;50.718;7.072;2023-05-27T13:12:58;23.00;99.90
14236;DHT22;7202;50.718;7.072;2023-05-27T13:15:28;23.00;99.90
14236;DHT22;7202;50.718;7.072;2023-05-27T13:17:58;23.00;97.30
14236;DHT22;7202;50.718;7.072;2023-05-27T13:20:27;23.10;97.40
14236;DHT22;7202;50.718;7.072;2023-05-27T13:22:57;23.10;99.90
14236;DHT22;7202;50.718;7.072;2023-05-27T13:25:28;23.10;99.90
14236;DHT22;7202;50.718;7.072;2023-05-27T13:27:57;23.10;99.90
14236;DHT22;7202;50.718;7.072;2023-05-27T13:30:26;23.10;99.40
14236;DHT22;7202;50.718;7.072;2023-05-27T13:32:54;23.10;99.90
14236;DHT22;7202;50.718;7.072;2023-05-27T13:35:25;23.20;99.90
14236;DHT22;7202;50.718;7.072;2023-05-27T13:37:53;23.20;99.10
14236;DHT22;7202;50.718;7.072;2023-05-27T13:40:23;23.30;98.10
14236;DHT22;7202;50.718;7.072;2023-05-27T13:42:51;23.30;98.00
14236;DHT22;7202;50.718;7.072;2023-05-27T13:45:23;23.40;97.30
14236;DHT22;7202;50.718;7.072;2023-05-27T13:47:52;23.40;94.20
14236;DHT22;7202;50.718;7.072;2023-05-27T13:50:21;23.40;94.30
14236;DHT22;7202;50.718;7.072;2023-05-27T13:52:51;23.40;96.20
14236;DHT22;7202;50.718;7.072;2023-05-27T13:55:20;23.40;96.30
14236;DHT22;7202;50.718;7.072;2023-05-27T13:57:50;23.40;96.40
14236;DHT22;7202;50.718;7.072;2023-05-27T14:00:19;23.50;97.40
14236;DHT22;7202;50.718;7.072;2023-05-27T14:02:49;23.40;96.70
14236;DHT22;7202;50.718;7.072;2023-05-27T14:05:18;23.50;96.10
14236;DHT22;7202;50.718;7.072;2023-05-27T14:07:49;23.50;96.60
14236;DHT22;7202;50.718;7.072;2023-05-27T14:10:26;23.50;96.50
14236;DHT22;7202;50.718;7.072;2023-05-27T14:12:54;23.50;95.70
14236;DHT22;7202;50.718;7.072;2023-05-27T14:15:25;23.50;95.00
14236;DHT22;7202;50.718;7.072;2023-05-27T14:17:56;23.50;95.60
14236;DHT22;7202;50.718;7.072;2023-05-27T14:20:27;23.50;95.30
14236;DHT22;7202;50.718;7.072;2023-05-27T14:22:57;23.50;95.30
14236;DHT22;7202;50.718;7.072;2023-05-27T14:25:28;23.50;96.80
14236;DHT22;7202;50.718;7.072;2023-05-27T14:27:57;23.50;97.10
14236;DHT22;7202;50.718;7.072;2023-05-27T14:30:29;23.50;94.30
14236;DHT22;7202;50.718;7.072;2023-05-27T14:32:58;23.50;94.80
14236;DHT22;7202;50.718;7.072;2023-05-27T14:35:29;23.60;96.10
14236;DHT22;7202;50.718;7.072;2023-05-27T14:37:58;23.50;94.60
14236;DHT22;7202;50.718;7.072;2023-05-27T14:40:28;23.50;94.50
14236;DHT22;7202;50.718;7.072;2023-05-27T14:42:57;23.50;93.00
14236;DHT22;7202;50.718;7.072;2023-05-27T14:45:25;23.50;93.90
14236;DHT22;7202;50.718;7.072;2023-05-27T14:47:54;23.50;94.50
14236;DHT22;7202;50.718;7.072;2023-05-27T14:50:24;23.50;95.30
14236;DHT22;7202;50.718;7.072;2023-05-27T14:52:53;23.40;95.40
14236;DHT22;7202;50.718;7.072;2023-05-27T14:55:22;23.40;95.50
14236;DHT22;7202;50.718;7.072;2023-05-27T14:57:52;23.40;94.50
14236;DHT22;7202;50.718;7.072;2023-05-27T15:00:21;23.40;92.50
14236;DHT22;7202;50.718;7.072;2023-05-27T15:02:49;23.40;94.00
14236;DHT22;7202;50.718;7.072;2023-05-27T15:05:19;23.40;91.60
14236;DHT22;7202;50.718;7.072;2023-05-27T15:07:48;23.40;94.00
14236;DHT22;7202;50.718;7.072;2023-05-27T15:10:16;23.40;92.50
14236;DHT22;7202;50.718;7.072;2023-05-27T15:12:46;23.50;91.10
14236;DHT22;7202;50.718;7.072;2023-05-27T15:15:18;23.40;91.20
14236;DHT22;7202;50.718;7.072;2023-05-27T15:17:47;23.40;91.60
14236;DHT22;7202;50.718;7.072;2023-05-27T15:20:17;23.40;93.10
14236;DHT22;7202;50.718;7.072;2023-05-27T15:22:46;23.30;92.90
14236;DHT22;7202;50.718;7.072;2023-05-27T15:25:15;23.30;92.80
14236;DHT22;7202;50.718;7.072;2023-05-27T15:27:44;23.30;91.00
14236;DHT22;7202;50.718;7.072;2023-05-27T15:30:13;23.40;91.70
14236;DHT22;7202;50.718;7.072;2023-05-27T15:32:43;23.40;91.80
14236;DHT22;7202;50.718;7.072;2023-05-27T15:35:12;23.40;92.10
14236;DHT22;7202;50.718;7.072;2023-05-27T15:37:40;23.40;91.80
14236;DHT22;7202;50.718;7.072;2023-05-27T15:40:09;23.40;91.50
14236;DHT22;7202;50.718;7.072;2023-05-27T15:42:39;23.50;90.10
14236;DHT22;7202;50.718;7.072;2023-05-27T15:45:08;23.50;90.50
14236;DHT22;7202;50.718;7.072;2023-05-27T15:47:37;23.40;90.10
14236;DHT22;7202;50.718;7.072;2023-05-27T15:50:08;23.40;91.40
14236;DHT22;7202;50.718;7.072;2023-05-27T15:52:37;23.40;90.70
14236;DHT22;7202;50.718;7.072;2023-05-27T15:55:06;23.40;86.60
14236;DHT22;7202;50.718;7.072;2023-05-27T15:57:35;23.40;89.00
14236;DHT22;7202;50.718;7.072;2023-05-27T16:00:04;23.40;88.80
14236;DHT22;7202;50.718;7.072;2023-05-27T16:02:37;23.40;90.30
14236;DHT22;7202;50.718;7.072;2023-05-27T16:05:08;23.40;90.30
14236;DHT22;7202;50.718;7.072;2023-05-27T16:07:43;23.40;90.40
14236;DHT22;7202;50.718;7.072;2023-05-27T16:10:12;23.40;87.80
14236;DHT22;7202;50.718;7.072;2023-05-27T16:12:40;23.30;89.90
14236;DHT22;7202;50.718;7.072;2023-05-27T16:15:10;23.20;90.80
14236;DHT22;7202;50.718;7.072;2023-05-27T16:17:41;23.20;91.50